S Coffeyville, Oklahoma
Current Conditions -  °F | °C
As of 6:52 AM on Saturday 20 Dec 2014 (Local Time) from KCFV Reporting Station
Overcast Overcast  
Wind Chill: 32°   Ceiling: 2100
Heat Index: 37°   Visibility: 8mi
Dew Point: 34°   Wind: 6mph
Humidity: 89%   Direction: 170°S
Pressure: 30.24"   Gusts: NA
Location:  36.9837°N, 95.6065°W
Report Text: KCFV 201252Z AUTO 17005KT 8SM OVC021 03/01 A3024 RMK AO2 SLP246 T00280011
Loading
Personal Weather Stations






























Interactive Weather Map New forecast layout! Learn more

10-Day Weather Forecast

Advertisements
Track Severe Weather on mobile